sensor_id;sensor_type;location;lat;lon;timestamp;P1;durP1;ratioP1;P2;durP2;ratioP2
32641;SDS011;19323;56.072;9.698;2023-01-13T00:01:16;1.50;;;0.68;;
32641;SDS011;19323;56.072;9.698;2023-01-13T00:03:43;1.08;;;0.40;;
32641;SDS011;19323;56.072;9.698;2023-01-13T00:06:09;0.60;;;0.40;;
32641;SDS011;19323;56.072;9.698;2023-01-13T00:08:38;0.85;;;0.50;;
32641;SDS011;19323;56.072;9.698;2023-01-13T00:11:03;1.20;;;0.60;;
32641;SDS011;19323;56.072;9.698;2023-01-13T00:13:29;2.30;;;0.98;;
32641;SDS011;19323;56.072;9.698;2023-01-13T00:16:00;0.75;;;0.57;;
32641;SDS011;19323;56.072;9.698;2023-01-13T00:18:27;1.13;;;0.43;;
32641;SDS011;19323;56.072;9.698;2023-01-13T00:21:03;1.00;;;0.50;;
32641;SDS011;19323;56.072;9.698;2023-01-13T00:23:38;0.52;;;0.40;;
32641;SDS011;19323;56.072;9.698;2023-01-13T00:26:05;1.42;;;0.50;;
32641;SDS011;19323;56.072;9.698;2023-01-13T00:28:33;1.10;;;0.60;;
32641;SDS011;19323;56.072;9.698;2023-01-13T00:33:30;1.77;;;0.80;;
32641;SDS011;19323;56.072;9.698;2023-01-13T00:35:56;1.25;;;0.50;;
32641;SDS011;19323;56.072;9.698;2023-01-13T00:38:22;1.20;;;0.40;;
32641;SDS011;19323;56.072;9.698;2023-01-13T00:40:58;0.88;;;0.47;;
32641;SDS011;19323;56.072;9.698;2023-01-13T00:43:25;1.80;;;0.77;;
32641;SDS011;19323;56.072;9.698;2023-01-13T00:45:52;0.85;;;0.57;;
32641;SDS011;19323;56.072;9.698;2023-01-13T00:48:18;1.02;;;0.40;;
32641;SDS011;19323;56.072;9.698;2023-01-13T00:50:44;1.27;;;0.60;;
32641;SDS011;19323;56.072;9.698;2023-01-13T00:53:10;1.50;;;1.25;;
32641;SDS011;19323;56.072;9.698;2023-01-13T00:55:37;1.60;;;0.80;;
32641;SDS011;19323;56.072;9.698;2023-01-13T00:58:03;2.30;;;0.75;;
32641;SDS011;19323;56.072;9.698;2023-01-13T01:00:28;0.80;;;0.45;;
32641;SDS011;19323;56.072;9.698;2023-01-13T01:02:54;1.02;;;0.68;;
32641;SDS011;19323;56.072;9.698;2023-01-13T01:05:20;1.73;;;0.68;;
32641;SDS011;19323;56.072;9.698;2023-01-13T01:07:45;1.25;;;0.65;;
32641;SDS011;19323;56.072;9.698;2023-01-13T01:10:10;1.00;;;0.40;;
32641;SDS011;19323;56.072;9.698;2023-01-13T01:12:35;3.30;;;0.75;;
32641;SDS011;19323;56.072;9.698;2023-01-13T01:15:01;1.20;;;0.43;;
32641;SDS011;19323;56.072;9.698;2023-01-13T01:17:27;0.95;;;0.30;;
32641;SDS011;19323;56.072;9.698;2023-01-13T01:19:52;1.42;;;0.82;;
32641;SDS011;19323;56.072;9.698;2023-01-13T01:22:17;1.00;;;0.55;;
32641;SDS011;19323;56.072;9.698;2023-01-13T01:24:43;1.00;;;0.38;;
32641;SDS011;19323;56.072;9.698;2023-01-13T01:27:08;4.35;;;0.57;;
32641;SDS011;19323;56.072;9.698;2023-01-13T01:29:33;2.10;;;0.60;;
32641;SDS011;19323;56.072;9.698;2023-01-13T01:31:58;0.95;;;0.30;;
32641;SDS011;19323;56.072;9.698;2023-01-13T01:34:24;1.13;;;0.77;;
32641;SDS011;19323;56.072;9.698;2023-01-13T01:36:49;2.40;;;0.65;;
32641;SDS011;19323;56.072;9.698;2023-01-13T01:39:14;2.00;;;0.60;;
32641;SDS011;19323;56.072;9.698;2023-01-13T01:41:39;1.20;;;0.50;;
32641;SDS011;19323;56.072;9.698;2023-01-13T01:47:05;2.35;;;0.70;;
32641;SDS011;19323;56.072;9.698;2023-01-13T01:49:31;0.60;;;0.50;;
32641;SDS011;19323;56.072;9.698;2023-01-13T01:52:07;1.40;;;0.40;;
32641;SDS011;19323;56.072;9.698;2023-01-13T01:54:39;1.75;;;0.88;;
32641;SDS011;19323;56.072;9.698;2023-01-13T01:57:14;1.15;;;0.43;;
32641;SDS011;19323;56.072;9.698;2023-01-13T01:59:43;3.83;;;0.70;;
32641;SDS011;19323;56.072;9.698;2023-01-13T02:02:09;3.97;;;0.60;;
32641;SDS011;19323;56.072;9.698;2023-01-13T02:04:37;1.45;;;0.63;;
32641;SDS011;19323;56.072;9.698;2023-01-13T02:07:05;1.40;;;0.93;;
32641;SDS011;19323;56.072;9.698;2023-01-13T02:09:30;2.45;;;0.90;;
32641;SDS011;19323;56.072;9.698;2023-01-13T02:11:57;2.28;;;0.40;;
32641;SDS011;19323;56.072;9.698;2023-01-13T02:14:41;1.65;;;0.52;;
32641;SDS011;19323;56.072;9.698;2023-01-13T02:22:53;2.25;;;0.60;;
32641;SDS011;19323;56.072;9.698;2023-01-13T02:26:11;1.85;;;0.70;;
32641;SDS011;19323;56.072;9.698;2023-01-13T02:32:12;0.90;;;0.43;;
32641;SDS011;19323;56.072;9.698;2023-01-13T02:35:04;2.72;;;1.45;;
32641;SDS011;19323;56.072;9.698;2023-01-13T02:37:35;4.05;;;0.60;;
32641;SDS011;19323;56.072;9.698;2023-01-13T02:40:07;2.03;;;0.77;;
32641;SDS011;19323;56.072;9.698;2023-01-13T02:42:46;2.00;;;0.50;;
32641;SDS011;19323;56.072;9.698;2023-01-13T02:45:36;1.25;;;0.60;;
32641;SDS011;19323;56.072;9.698;2023-01-13T02:48:06;1.65;;;0.50;;
32641;SDS011;19323;56.072;9.698;2023-01-13T02:50:34;4.30;;;0.60;;
32641;SDS011;19323;56.072;9.698;2023-01-13T02:53:20;1.92;;;0.80;;
32641;SDS011;19323;56.072;9.698;2023-01-13T02:55:52;3.05;;;0.98;;
32641;SDS011;19323;56.072;9.698;2023-01-13T02:58:21;2.28;;;0.45;;
32641;SDS011;19323;56.072;9.698;2023-01-13T03:00:49;3.20;;;0.70;;
32641;SDS011;19323;56.072;9.698;2023-01-13T03:03:15;1.48;;;0.70;;
32641;SDS011;19323;56.072;9.698;2023-01-13T03:05:41;1.00;;;0.35;;
32641;SDS011;19323;56.072;9.698;2023-01-13T03:08:15;4.22;;;0.50;;
32641;SDS011;19323;56.072;9.698;2023-01-13T03:13:53;2.13;;;0.85;;
32641;SDS011;19323;56.072;9.698;2023-01-13T03:16:27;3.53;;;0.95;;
32641;SDS011;19323;56.072;9.698;2023-01-13T03:19:12;1.70;;;0.47;;
32641;SDS011;19323;56.072;9.698;2023-01-13T03:21:52;1.00;;;0.68;;
32641;SDS011;19323;56.072;9.698;2023-01-13T03:24:34;1.92;;;0.50;;
32641;SDS011;19323;56.072;9.698;2023-01-13T03:27:10;0.77;;;0.50;;
32641;SDS011;19323;56.072;9.698;2023-01-13T03:35:01;2.90;;;0.50;;
32641;SDS011;19323;56.072;9.698;2023-01-13T03:37:37;1.10;;;0.68;;
32641;SDS011;19323;56.072;9.698;2023-01-13T03:40:07;1.55;;;0.80;;
32641;SDS011;19323;56.072;9.698;2023-01-13T03:42:45;3.75;;;0.60;;
32641;SDS011;19323;56.072;9.698;2023-01-13T03:45:34;2.90;;;0.63;;
32641;SDS011;19323;56.072;9.698;2023-01-13T03:48:05;3.40;;;0.45;;
32641;SDS011;19323;56.072;9.698;2023-01-13T03:50:37;2.03;;;0.52;;
32641;SDS011;19323;56.072;9.698;2023-01-13T03:55:40;1.30;;;0.63;;
32641;SDS011;19323;56.072;9.698;2023-01-13T03:58:20;1.60;;;0.50;;
32641;SDS011;19323;56.072;9.698;2023-01-13T04:01:00;2.63;;;0.70;;
32641;SDS011;19323;56.072;9.698;2023-01-13T04:06:27;1.65;;;0.73;;
32641;SDS011;19323;56.072;9.698;2023-01-13T04:08:56;4.15;;;0.60;;
32641;SDS011;19323;56.072;9.698;2023-01-13T04:11:31;2.55;;;0.55;;
32641;SDS011;19323;56.072;9.698;2023-01-13T04:14:04;3.15;;;0.52;;
32641;SDS011;19323;56.072;9.698;2023-01-13T04:16:35;1.40;;;0.50;;
32641;SDS011;19323;56.072;9.698;2023-01-13T04:19:00;1.95;;;0.52;;
32641;SDS011;19323;56.072;9.698;2023-01-13T04:21:25;3.65;;;0.80;;
32641;SDS011;19323;56.072;9.698;2023-01-13T04:23:50;1.65;;;0.63;;
32641;SDS011;19323;56.072;9.698;2023-01-13T04:26:16;1.80;;;0.77;;
32641;SDS011;19323;56.072;9.698;2023-01-13T04:28:43;2.97;;;0.70;;
32641;SDS011;19323;56.072;9.698;2023-01-13T04:31:08;1.75;;;0.65;;
32641;SDS011;19323;56.072;9.698;2023-01-13T04:33:34;1.70;;;0.73;;
32641;SDS011;19323;56.072;9.698;2023-01-13T04:35:59;1.58;;;0.90;;
32641;SDS011;19323;56.072;9.698;2023-01-13T04:38:24;3.70;;;0.43;;
32641;SDS011;19323;56.072;9.698;2023-01-13T04:40:49;2.85;;;0.77;;
32641;SDS011;19323;56.072;9.698;2023-01-13T04:43:15;1.27;;;0.50;;
32641;SDS011;19323;56.072;9.698;2023-01-13T04:45:41;1.30;;;0.60;;
32641;SDS011;19323;56.072;9.698;2023-01-13T04:48:06;0.95;;;0.30;;
32641;SDS011;19323;56.072;9.698;2023-01-13T04:50:32;2.33;;;0.75;;
32641;SDS011;19323;56.072;9.698;2023-01-13T04:52:57;1.52;;;0.55;;
32641;SDS011;19323;56.072;9.698;2023-01-13T04:55:25;1.45;;;0.43;;
32641;SDS011;19323;56.072;9.698;2023-01-13T04:57:50;2.45;;;0.60;;
32641;SDS011;19323;56.072;9.698;2023-01-13T05:00:17;1.25;;;0.40;;
32641;SDS011;19323;56.072;9.698;2023-01-13T05:02:43;1.83;;;0.57;;
32641;SDS011;19323;56.072;9.698;2023-01-13T05:05:09;2.22;;;0.70;;
32641;SDS011;19323;56.072;9.698;2023-01-13T05:07:34;3.50;;;1.25;;
32641;SDS011;19323;56.072;9.698;2023-01-13T05:10:00;1.77;;;0.45;;
32641;SDS011;19323;56.072;9.698;2023-01-13T05:12:25;10.95;;;1.02;;
32641;SDS011;19323;56.072;9.698;2023-01-13T05:15:29;1.92;;;1.08;;
32641;SDS011;19323;56.072;9.698;2023-01-13T05:18:13;6.78;;;1.35;;
32641;SDS011;19323;56.072;9.698;2023-01-13T05:20:39;7.28;;;1.17;;
32641;SDS011;19323;56.072;9.698;2023-01-13T05:23:05;6.03;;;1.00;;
32641;SDS011;19323;56.072;9.698;2023-01-13T05:25:49;3.25;;;0.88;;
32641;SDS011;19323;56.072;9.698;2023-01-13T05:28:14;2.13;;;0.88;;
32641;SDS011;19323;56.072;9.698;2023-01-13T05:30:41;4.68;;;1.00;;
32641;SDS011;19323;56.072;9.698;2023-01-13T05:33:11;4.07;;;1.40;;
32641;SDS011;19323;56.072;9.698;2023-01-13T05:35:39;3.95;;;1.60;;
32641;SDS011;19323;56.072;9.698;2023-01-13T05:38:06;5.18;;;1.50;;
32641;SDS011;19323;56.072;9.698;2023-01-13T05:40:31;4.25;;;1.77;;
32641;SDS011;19323;56.072;9.698;2023-01-13T05:43:16;4.15;;;1.90;;
32641;SDS011;19323;56.072;9.698;2023-01-13T05:48:25;5.53;;;1.85;;
32641;SDS011;19323;56.072;9.698;2023-01-13T05:50:52;6.85;;;1.30;;
32641;SDS011;19323;56.072;9.698;2023-01-13T05:53:18;5.70;;;1.20;;
32641;SDS011;19323;56.072;9.698;2023-01-13T05:55:44;6.10;;;1.83;;
32641;SDS011;19323;56.072;9.698;2023-01-13T05:58:10;4.60;;;1.20;;
32641;SDS011;19323;56.072;9.698;2023-01-13T06:00:37;8.13;;;1.50;;
32641;SDS011;19323;56.072;9.698;2023-01-13T06:03:02;9.00;;;2.13;;
32641;SDS011;19323;56.072;9.698;2023-01-13T06:05:28;9.02;;;2.30;;
32641;SDS011;19323;56.072;9.698;2023-01-13T06:07:57;9.30;;;2.67;;
32641;SDS011;19323;56.072;9.698;2023-01-13T06:10:23;8.77;;;2.55;;
32641;SDS011;19323;56.072;9.698;2023-01-13T06:12:49;20.10;;;4.95;;
32641;SDS011;19323;56.072;9.698;2023-01-13T06:15:14;7.82;;;3.00;;
32641;SDS011;19323;56.072;9.698;2023-01-13T06:17:39;9.82;;;4.03;;
32641;SDS011;19323;56.072;9.698;2023-01-13T06:20:05;7.70;;;2.38;;
32641;SDS011;19323;56.072;9.698;2023-01-13T06:22:32;10.70;;;2.97;;
32641;SDS011;19323;56.072;9.698;2023-01-13T06:25:04;12.27;;;2.97;;
32641;SDS011;19323;56.072;9.698;2023-01-13T06:27:35;11.55;;;3.75;;
32641;SDS011;19323;56.072;9.698;2023-01-13T06:30:01;11.93;;;3.72;;
32641;SDS011;19323;56.072;9.698;2023-01-13T06:32:28;14.07;;;3.55;;
32641;SDS011;19323;56.072;9.698;2023-01-13T06:35:01;10.55;;;4.43;;
32641;SDS011;19323;56.072;9.698;2023-01-13T06:37:30;10.73;;;3.80;;
32641;SDS011;19323;56.072;9.698;2023-01-13T06:39:57;7.35;;;2.67;;
32641;SDS011;19323;56.072;9.698;2023-01-13T06:42:26;11.50;;;3.70;;
32641;SDS011;19323;56.072;9.698;2023-01-13T06:45:12;7.63;;;3.83;;
32641;SDS011;19323;56.072;9.698;2023-01-13T06:47:38;8.45;;;3.47;;
32641;SDS011;19323;56.072;9.698;2023-01-13T06:50:04;10.38;;;3.50;;
32641;SDS011;19323;56.072;9.698;2023-01-13T06:52:29;12.52;;;4.28;;
32641;SDS011;19323;56.072;9.698;2023-01-13T06:54:55;10.65;;;4.43;;
32641;SDS011;19323;56.072;9.698;2023-01-13T06:57:21;11.10;;;4.13;;
32641;SDS011;19323;56.072;9.698;2023-01-13T06:59:46;10.05;;;4.72;;
32641;SDS011;19323;56.072;9.698;2023-01-13T07:02:11;9.07;;;4.13;;
32641;SDS011;19323;56.072;9.698;2023-01-13T07:04:37;13.80;;;4.93;;
32641;SDS011;19323;56.072;9.698;2023-01-13T07:07:02;11.60;;;4.00;;
32641;SDS011;19323;56.072;9.698;2023-01-13T07:09:27;16.35;;;4.22;;
32641;SDS011;19323;56.072;9.698;2023-01-13T07:11:52;9.55;;;4.47;;
32641;SDS011;19323;56.072;9.698;2023-01-13T07:14:18;7.15;;;4.07;;
32641;SDS011;19323;56.072;9.698;2023-01-13T07:17:02;9.15;;;3.60;;
32641;SDS011;19323;56.072;9.698;2023-01-13T07:19:27;10.30;;;4.07;;
32641;SDS011;19323;56.072;9.698;2023-01-13T07:21:53;10.93;;;4.78;;
32641;SDS011;19323;56.072;9.698;2023-01-13T07:24:18;9.80;;;4.72;;
32641;SDS011;19323;56.072;9.698;2023-01-13T07:26:44;7.35;;;4.10;;
32641;SDS011;19323;56.072;9.698;2023-01-13T07:29:10;11.07;;;4.30;;
32641;SDS011;19323;56.072;9.698;2023-01-13T07:31:36;10.43;;;4.65;;
32641;SDS011;19323;56.072;9.698;2023-01-13T07:34:02;12.80;;;3.83;;
32641;SDS011;19323;56.072;9.698;2023-01-13T07:36:28;10.90;;;4.32;;
32641;SDS011;19323;56.072;9.698;2023-01-13T07:38:53;13.13;;;4.85;;
32641;SDS011;19323;56.072;9.698;2023-01-13T07:41:18;11.50;;;4.68;;
32641;SDS011;19323;56.072;9.698;2023-01-13T07:44:04;12.70;;;4.47;;
32641;SDS011;19323;56.072;9.698;2023-01-13T07:46:30;13.15;;;5.03;;
32641;SDS011;19323;56.072;9.698;2023-01-13T07:48:55;9.88;;;4.13;;
32641;SDS011;19323;56.072;9.698;2023-01-13T07:51:20;10.48;;;4.40;;
32641;SDS011;19323;56.072;9.698;2023-01-13T07:53:46;8.77;;;4.18;;
32641;SDS011;19323;56.072;9.698;2023-01-13T07:56:11;8.98;;;4.22;;
32641;SDS011;19323;56.072;9.698;2023-01-13T07:58:37;8.20;;;3.75;;
32641;SDS011;19323;56.072;9.698;2023-01-13T08:01:12;11.82;;;5.43;;
32641;SDS011;19323;56.072;9.698;2023-01-13T08:03:38;13.32;;;5.00;;
32641;SDS011;19323;56.072;9.698;2023-01-13T08:06:04;9.63;;;4.43;;
32641;SDS011;19323;56.072;9.698;2023-01-13T08:08:30;12.73;;;4.45;;
32641;SDS011;19323;56.072;9.698;2023-01-13T08:10:59;7.88;;;3.50;;
32641;SDS011;19323;56.072;9.698;2023-01-13T08:13:26;9.55;;;4.15;;
32641;SDS011;19323;56.072;9.698;2023-01-13T08:15:52;10.20;;;4.70;;
32641;SDS011;19323;56.072;9.698;2023-01-13T08:18:22;11.25;;;4.38;;
32641;SDS011;19323;56.072;9.698;2023-01-13T08:20:48;6.70;;;4.00;;
32641;SDS011;19323;56.072;9.698;2023-01-13T08:23:13;9.35;;;3.90;;
32641;SDS011;19323;56.072;9.698;2023-01-13T08:25:39;10.65;;;3.90;;
32641;SDS011;19323;56.072;9.698;2023-01-13T08:28:04;11.27;;;4.55;;
32641;SDS011;19323;56.072;9.698;2023-01-13T08:30:30;6.05;;;3.70;;
32641;SDS011;19323;56.072;9.698;2023-01-13T08:32:55;9.73;;;3.80;;
32641;SDS011;19323;56.072;9.698;2023-01-13T08:35:21;5.20;;;3.17;;
32641;SDS011;19323;56.072;9.698;2023-01-13T08:37:47;9.73;;;4.20;;
32641;SDS011;19323;56.072;9.698;2023-01-13T08:40:14;7.43;;;3.30;;
32641;SDS011;19323;56.072;9.698;2023-01-13T08:42:40;8.18;;;3.20;;
32641;SDS011;19323;56.072;9.698;2023-01-13T08:45:05;13.45;;;3.60;;
32641;SDS011;19323;56.072;9.698;2023-01-13T08:47:32;6.97;;;3.15;;
32641;SDS011;19323;56.072;9.698;2023-01-13T08:49:57;6.40;;;3.63;;
32641;SDS011;19323;56.072;9.698;2023-01-13T08:52:22;10.32;;;3.80;;
32641;SDS011;19323;56.072;9.698;2023-01-13T08:54:48;7.57;;;3.30;;
32641;SDS011;19323;56.072;9.698;2023-01-13T08:57:14;6.90;;;3.42;;
32641;SDS011;19323;56.072;9.698;2023-01-13T08:59:39;10.98;;;3.97;;
32641;SDS011;19323;56.072;9.698;2023-01-13T09:02:17;6.20;;;3.70;;
32641;SDS011;19323;56.072;9.698;2023-01-13T09:04:45;8.48;;;4.38;;
32641;SDS011;19323;56.072;9.698;2023-01-13T09:07:11;8.30;;;3.42;;
32641;SDS011;19323;56.072;9.698;2023-01-13T09:09:37;9.00;;;3.67;;
32641;SDS011;19323;56.072;9.698;2023-01-13T09:12:03;5.43;;;2.75;;
32641;SDS011;19323;56.072;9.698;2023-01-13T09:14:47;9.75;;;4.22;;
32641;SDS011;19323;56.072;9.698;2023-01-13T09:17:12;8.38;;;3.50;;
32641;SDS011;19323;56.072;9.698;2023-01-13T09:19:38;8.85;;;3.75;;
32641;SDS011;19323;56.072;9.698;2023-01-13T09:22:03;6.55;;;3.50;;
32641;SDS011;19323;56.072;9.698;2023-01-13T09:24:29;7.45;;;3.63;;
32641;SDS011;19323;56.072;9.698;2023-01-13T09:26:54;6.07;;;3.53;;
32641;SDS011;19323;56.072;9.698;2023-01-13T09:29:20;5.80;;;2.88;;
32641;SDS011;19323;56.072;9.698;2023-01-13T09:31:45;6.15;;;3.67;;
32641;SDS011;19323;56.072;9.698;2023-01-13T09:34:13;7.18;;;3.28;;
32641;SDS011;19323;56.072;9.698;2023-01-13T09:36:58;6.03;;;3.03;;
32641;SDS011;19323;56.072;9.698;2023-01-13T09:39:24;8.43;;;3.40;;
32641;SDS011;19323;56.072;9.698;2023-01-13T09:41:50;6.22;;;2.70;;
32641;SDS011;19323;56.072;9.698;2023-01-13T09:44:46;5.35;;;3.17;;
32641;SDS011;19323;56.072;9.698;2023-01-13T09:52:37;5.55;;;3.17;;
32641;SDS011;19323;56.072;9.698;2023-01-13T09:55:04;5.97;;;2.65;;
32641;SDS011;19323;56.072;9.698;2023-01-13T09:57:36;6.13;;;3.15;;
32641;SDS011;19323;56.072;9.698;2023-01-13T10:00:09;5.50;;;3.05;;
32641;SDS011;19323;56.072;9.698;2023-01-13T10:02:52;5.00;;;2.80;;
32641;SDS011;19323;56.072;9.698;2023-01-13T10:08:10;5.82;;;2.80;;
32641;SDS011;19323;56.072;9.698;2023-01-13T10:10:46;4.00;;;2.80;;
32641;SDS011;19323;56.072;9.698;2023-01-13T10:13:15;4.88;;;2.85;;
32641;SDS011;19323;56.072;9.698;2023-01-13T10:18:23;6.75;;;3.28;;
32641;SDS011;19323;56.072;9.698;2023-01-13T10:24:13;3.00;;;2.50;;
32641;SDS011;19323;56.072;9.698;2023-01-13T10:27:06;3.90;;;2.33;;
32641;SDS011;19323;56.072;9.698;2023-01-13T10:29:38;4.38;;;2.15;;
32641;SDS011;19323;56.072;9.698;2023-01-13T10:32:04;3.30;;;2.22;;
32641;SDS011;19323;56.072;9.698;2023-01-13T10:34:29;5.15;;;2.63;;
32641;SDS011;19323;56.072;9.698;2023-01-13T10:36:58;3.00;;;2.13;;
32641;SDS011;19323;56.072;9.698;2023-01-13T10:39:38;3.85;;;2.03;;
32641;SDS011;19323;56.072;9.698;2023-01-13T10:42:06;4.35;;;2.60;;
32641;SDS011;19323;56.072;9.698;2023-01-13T10:44:45;4.00;;;2.28;;
32641;SDS011;19323;56.072;9.698;2023-01-13T10:47:17;3.90;;;2.05;;
32641;SDS011;19323;56.072;9.698;2023-01-13T10:49:45;5.13;;;2.90;;
32641;SDS011;19323;56.072;9.698;2023-01-13T10:52:30;4.10;;;2.65;;
32641;SDS011;19323;56.072;9.698;2023-01-13T10:54:57;3.92;;;1.88;;
32641;SDS011;19323;56.072;9.698;2023-01-13T10:57:23;2.78;;;2.15;;
32641;SDS011;19323;56.072;9.698;2023-01-13T10:59:51;4.50;;;1.90;;
32641;SDS011;19323;56.072;9.698;2023-01-13T11:05:17;4.53;;;2.72;;
32641;SDS011;19323;56.072;9.698;2023-01-13T11:07:48;3.75;;;2.28;;
32641;SDS011;19323;56.072;9.698;2023-01-13T11:10:29;7.05;;;1.92;;
32641;SDS011;19323;56.072;9.698;2023-01-13T11:13:04;4.18;;;2.17;;
32641;SDS011;19323;56.072;9.698;2023-01-13T11:15:40;3.60;;;2.20;;
32641;SDS011;19323;56.072;9.698;2023-01-13T11:18:16;3.72;;;2.22;;
32641;SDS011;19323;56.072;9.698;2023-01-13T11:20:47;3.47;;;2.25;;
32641;SDS011;19323;56.072;9.698;2023-01-13T11:26:03;3.47;;;2.10;;
32641;SDS011;19323;56.072;9.698;2023-01-13T11:28:37;4.93;;;2.30;;
32641;SDS011;19323;56.072;9.698;2023-01-13T11:36:53;3.33;;;2.30;;
32641;SDS011;19323;56.072;9.698;2023-01-13T11:39:40;3.53;;;1.83;;
32641;SDS011;19323;56.072;9.698;2023-01-13T11:42:20;2.33;;;1.73;;
32641;SDS011;19323;56.072;9.698;2023-01-13T11:44:52;3.13;;;1.67;;
32641;SDS011;19323;56.072;9.698;2023-01-13T11:47:28;3.13;;;1.80;;
32641;SDS011;19323;56.072;9.698;2023-01-13T11:49:56;2.75;;;1.80;;
32641;SDS011;19323;56.072;9.698;2023-01-13T11:52:46;2.88;;;2.13;;
32641;SDS011;19323;56.072;9.698;2023-01-13T11:55:34;5.22;;;2.28;;
32641;SDS011;19323;56.072;9.698;2023-01-13T12:06:10;5.30;;;2.35;;
32641;SDS011;19323;56.072;9.698;2023-01-13T12:08:45;2.90;;;1.80;;
32641;SDS011;19323;56.072;9.698;2023-01-13T12:11:32;3.50;;;2.10;;
32641;SDS011;19323;56.072;9.698;2023-01-13T12:17:01;3.80;;;1.83;;
32641;SDS011;19323;56.072;9.698;2023-01-13T12:19:39;3.47;;;1.75;;
32641;SDS011;19323;56.072;9.698;2023-01-13T12:22:11;2.90;;;1.50;;
32641;SDS011;19323;56.072;9.698;2023-01-13T12:30:50;2.47;;;1.27;;
32641;SDS011;19323;56.072;9.698;2023-01-13T12:36:16;1.47;;;1.10;;
32641;SDS011;19323;56.072;9.698;2023-01-13T12:39:28;3.45;;;1.70;;
32641;SDS011;19323;56.072;9.698;2023-01-13T12:47:39;5.30;;;1.63;;
32641;SDS011;19323;56.072;9.698;2023-01-13T12:52:45;3.20;;;1.92;;
32641;SDS011;19323;56.072;9.698;2023-01-13T12:55:11;2.42;;;1.65;;
32641;SDS011;19323;56.072;9.698;2023-01-13T12:57:43;2.67;;;1.40;;
32641;SDS011;19323;56.072;9.698;2023-01-13T13:05:58;2.65;;;1.45;;
32641;SDS011;19323;56.072;9.698;2023-01-13T13:13:57;2.78;;;1.25;;
32641;SDS011;19323;56.072;9.698;2023-01-13T13:24:40;4.30;;;1.77;;
32641;SDS011;19323;56.072;9.698;2023-01-13T13:27:17;3.72;;;1.30;;
32641;SDS011;19323;56.072;9.698;2023-01-13T13:29:53;3.15;;;1.52;;
32641;SDS011;19323;56.072;9.698;2023-01-13T13:38:10;2.58;;;1.30;;
32641;SDS011;19323;56.072;9.698;2023-01-13T13:41:10;4.07;;;1.40;;
32641;SDS011;19323;56.072;9.698;2023-01-13T13:43:59;2.67;;;1.60;;
32641;SDS011;19323;56.072;9.698;2023-01-13T13:46:55;5.00;;;1.25;;
32641;SDS011;19323;56.072;9.698;2023-01-13T13:49:33;2.88;;;1.70;;
32641;SDS011;19323;56.072;9.698;2023-01-13T13:52:18;3.08;;;1.40;;
32641;SDS011;19323;56.072;9.698;2023-01-13T13:54:50;2.25;;;1.20;;
32641;SDS011;19323;56.072;9.698;2023-01-13T13:57:25;4.70;;;2.00;;
32641;SDS011;19323;56.072;9.698;2023-01-13T13:59:58;4.60;;;1.30;;
32641;SDS011;19323;56.072;9.698;2023-01-13T14:02:28;2.97;;;1.33;;
32641;SDS011;19323;56.072;9.698;2023-01-13T14:07:45;1.88;;;1.25;;
32641;SDS011;19323;56.072;9.698;2023-01-13T14:10:13;2.90;;;1.38;;
32641;SDS011;19323;56.072;9.698;2023-01-13T14:12:43;3.75;;;1.35;;
32641;SDS011;19323;56.072;9.698;2023-01-13T14:18:12;3.55;;;1.45;;
32641;SDS011;19323;56.072;9.698;2023-01-13T14:20:41;2.53;;;1.17;;
32641;SDS011;19323;56.072;9.698;2023-01-13T14:23:12;2.83;;;1.02;;
32641;SDS011;19323;56.072;9.698;2023-01-13T14:25:47;5.93;;;1.20;;
32641;SDS011;19323;56.072;9.698;2023-01-13T14:28:19;3.90;;;1.85;;
32641;SDS011;19323;56.072;9.698;2023-01-13T14:30:48;6.97;;;1.20;;
32641;SDS011;19323;56.072;9.698;2023-01-13T14:33:15;2.20;;;0.80;;
32641;SDS011;19323;56.072;9.698;2023-01-13T14:36:03;5.60;;;1.33;;
32641;SDS011;19323;56.072;9.698;2023-01-13T14:38:28;3.25;;;1.35;;
32641;SDS011;19323;56.072;9.698;2023-01-13T14:40:54;5.55;;;1.38;;
32641;SDS011;19323;56.072;9.698;2023-01-13T14:43:19;3.35;;;1.65;;
32641;SDS011;19323;56.072;9.698;2023-01-13T14:45:55;4.72;;;1.50;;
32641;SDS011;19323;56.072;9.698;2023-01-13T14:48:25;4.50;;;1.80;;
32641;SDS011;19323;56.072;9.698;2023-01-13T14:53:30;4.47;;;1.63;;
32641;SDS011;19323;56.072;9.698;2023-01-13T14:59:29;6.97;;;1.30;;
32641;SDS011;19323;56.072;9.698;2023-01-13T15:16:51;6.18;;;2.50;;
32641;SDS011;19323;56.072;9.698;2023-01-13T15:19:17;8.75;;;1.92;;
32641;SDS011;19323;56.072;9.698;2023-01-13T15:21:42;12.50;;;2.10;;
32641;SDS011;19323;56.072;9.698;2023-01-13T15:24:07;14.23;;;2.47;;
32641;SDS011;19323;56.072;9.698;2023-01-13T15:26:32;12.73;;;2.78;;
32641;SDS011;19323;56.072;9.698;2023-01-13T15:28:59;10.05;;;2.35;;
32641;SDS011;19323;56.072;9.698;2023-01-13T15:31:25;10.63;;;1.88;;
32641;SDS011;19323;56.072;9.698;2023-01-13T15:33:51;11.07;;;2.00;;
32641;SDS011;19323;56.072;9.698;2023-01-13T15:36:27;6.55;;;1.38;;
32641;SDS011;19323;56.072;9.698;2023-01-13T15:38:54;14.18;;;2.42;;
32641;SDS011;19323;56.072;9.698;2023-01-13T15:41:21;14.02;;;2.30;;
32641;SDS011;19323;56.072;9.698;2023-01-13T15:44:05;15.20;;;2.22;;
32641;SDS011;19323;56.072;9.698;2023-01-13T15:46:49;7.85;;;2.03;;
32641;SDS011;19323;56.072;9.698;2023-01-13T15:51:52;14.55;;;2.17;;
32641;SDS011;19323;56.072;9.698;2023-01-13T15:54:17;27.63;;;5.72;;
32641;SDS011;19323;56.072;9.698;2023-01-13T15:56:46;34.55;;;9.95;;
32641;SDS011;19323;56.072;9.698;2023-01-13T15:59:16;48.10;;;11.82;;
32641;SDS011;19323;56.072;9.698;2023-01-13T16:01:44;41.15;;;12.48;;
32641;SDS011;19323;56.072;9.698;2023-01-13T16:04:10;32.80;;;9.50;;
32641;SDS011;19323;56.072;9.698;2023-01-13T16:06:35;61.78;;;17.92;;
32641;SDS011;19323;56.072;9.698;2023-01-13T16:09:01;99.72;;;32.53;;
32641;SDS011;19323;56.072;9.698;2023-01-13T16:11:27;138.23;;;45.40;;
32641;SDS011;19323;56.072;9.698;2023-01-13T16:13:52;100.03;;;33.63;;
32641;SDS011;19323;56.072;9.698;2023-01-13T16:16:22;122.53;;;41.78;;
32641;SDS011;19323;56.072;9.698;2023-01-13T16:18:49;127.47;;;43.85;;
32641;SDS011;19323;56.072;9.698;2023-01-13T16:21:15;127.13;;;42.10;;
32641;SDS011;19323;56.072;9.698;2023-01-13T16:23:43;135.35;;;48.63;;
32641;SDS011;19323;56.072;9.698;2023-01-13T16:26:16;131.35;;;43.95;;
32641;SDS011;19323;56.072;9.698;2023-01-13T16:28:44;159.40;;;56.30;;
32641;SDS011;19323;56.072;9.698;2023-01-13T16:31:17;153.35;;;54.25;;
32641;SDS011;19323;56.072;9.698;2023-01-13T16:33:47;160.32;;;55.63;;
32641;SDS011;19323;56.072;9.698;2023-01-13T16:36:14;169.68;;;60.55;;
32641;SDS011;19323;56.072;9.698;2023-01-13T16:38:40;192.18;;;71.65;;
32641;SDS011;19323;56.072;9.698;2023-01-13T16:41:06;169.57;;;65.18;;
32641;SDS011;19323;56.072;9.698;2023-01-13T16:43:31;153.63;;;58.47;;
32641;SDS011;19323;56.072;9.698;2023-01-13T16:45:56;166.43;;;63.72;;
32641;SDS011;19323;56.072;9.698;2023-01-13T16:48:22;183.93;;;69.97;;
32641;SDS011;19323;56.072;9.698;2023-01-13T16:50:47;185.15;;;72.78;;
32641;SDS011;19323;56.072;9.698;2023-01-13T16:53:12;190.38;;;71.03;;
32641;SDS011;19323;56.072;9.698;2023-01-13T16:55:38;179.30;;;72.07;;
32641;SDS011;19323;56.072;9.698;2023-01-13T16:58:05;180.23;;;76.57;;
32641;SDS011;19323;56.072;9.698;2023-01-13T17:00:31;190.43;;;76.95;;
32641;SDS011;19323;56.072;9.698;2023-01-13T17:02:57;177.50;;;76.50;;
32641;SDS011;19323;56.072;9.698;2023-01-13T17:05:25;199.23;;;77.40;;
32641;SDS011;19323;56.072;9.698;2023-01-13T17:07:50;185.05;;;77.35;;
32641;SDS011;19323;56.072;9.698;2023-01-13T17:10:16;187.38;;;73.13;;
32641;SDS011;19323;56.072;9.698;2023-01-13T17:12:44;184.00;;;75.80;;
32641;SDS011;19323;56.072;9.698;2023-01-13T17:15:13;189.25;;;77.00;;
32641;SDS011;19323;56.072;9.698;2023-01-13T17:17:40;173.65;;;74.45;;
32641;SDS011;19323;56.072;9.698;2023-01-13T17:20:09;186.57;;;76.63;;